createdAt,value
2023-04-09T00:02:35.263Z,15.20
2023-04-09T00:05:42.518Z,16.85
2023-04-09T00:08:46.037Z,15.68
2023-04-09T00:11:51.749Z,15.40
2023-04-09T00:14:56.283Z,14.55
2023-04-09T00:18:00.291Z,14.35
2023-04-09T00:21:03.671Z,13.73
2023-04-09T00:24:11.965Z,14.55
2023-04-09T00:27:15.347Z,14.35
2023-04-09T00:30:22.000Z,14.10
2023-04-09T00:33:26.820Z,14.63
2023-04-09T00:36:41.933Z,16.23
2023-04-09T00:39:45.497Z,16.25
2023-04-09T00:42:52.072Z,14.73
2023-04-09T00:46:00.821Z,14.93
2023-04-09T00:49:07.473Z,16.20
2023-04-09T00:52:11.764Z,15.13
2023-04-09T00:55:15.352Z,21.60
2023-04-09T00:58:21.807Z,21.33
2023-04-09T01:01:28.187Z,17.98
2023-04-09T01:04:31.849Z,22.13
2023-04-09T01:07:47.268Z,16.65
2023-04-09T01:11:34.197Z,13.57
2023-04-09T01:14:57.632Z,14.68
2023-04-09T01:18:16.847Z,4.47
2023-04-09T01:25:05.721Z,5.75
2023-04-09T01:28:24.771Z,3.63
2023-04-09T01:31:33.877Z,6.60
2023-04-09T01:34:37.842Z,3.65
2023-04-09T01:37:46.489Z,7.18
2023-04-09T01:40:54.477Z,7.45
2023-04-09T01:44:02.607Z,6.45
2023-04-09T01:47:10.028Z,6.00
2023-04-09T01:50:16.941Z,7.07
2023-04-09T01:53:23.452Z,6.68
2023-04-09T01:56:43.142Z,5.57
2023-04-09T01:59:49.796Z,4.35
2023-04-09T02:02:59.065Z,3.10
2023-04-09T02:06:14.227Z,3.38
2023-04-09T02:09:43.089Z,3.60
2023-04-09T02:12:52.126Z,2.80
2023-04-09T02:15:59.259Z,3.63
2023-04-09T02:19:09.410Z,3.75
2023-04-09T02:22:17.276Z,3.08
2023-04-09T02:25:20.901Z,2.63
2023-04-09T02:28:24.256Z,3.13
2023-04-09T02:31:29.423Z,2.72
2023-04-09T02:37:38.393Z,3.45
2023-04-09T02:40:42.433Z,3.40
2023-04-09T02:43:50.861Z,3.20
2023-04-09T02:46:59.267Z,2.90
2023-04-09T02:50:07.088Z,3.72
2023-04-09T02:53:39.942Z,3.13
2023-04-09T02:56:43.447Z,3.10
2023-04-09T02:59:48.614Z,2.75
2023-04-09T03:02:52.179Z,2.95
2023-04-09T03:05:55.946Z,3.05
2023-04-09T03:09:02.461Z,3.22
2023-04-09T03:12:05.962Z,5.72
2023-04-09T03:15:09.611Z,5.00
2023-04-09T03:18:12.973Z,4.47
2023-04-09T03:21:19.463Z,3.50
2023-04-09T03:24:25.608Z,3.42
2023-04-09T03:27:29.974Z,4.60
2023-04-09T03:30:34.329Z,4.72
2023-04-09T03:33:40.470Z,4.00
2023-04-09T03:36:45.029Z,3.85
2023-04-09T03:40:01.072Z,3.88
2023-04-09T03:43:09.604Z,6.38
2023-04-09T03:46:16.975Z,3.75
2023-04-09T03:49:23.639Z,4.07
2023-04-09T03:52:27.256Z,3.58
2023-04-09T03:55:45.108Z,4.15
2023-04-09T03:58:55.649Z,4.45
2023-04-09T04:02:06.967Z,3.75
2023-04-09T04:05:14.784Z,3.28
2023-04-09T04:08:23.169Z,6.00
2023-04-09T04:11:30.159Z,3.00
2023-04-09T04:14:35.078Z,3.38
2023-04-09T04:17:59.901Z,2.90
2023-04-09T04:21:22.027Z,2.80
2023-04-09T04:24:33.267Z,2.88
2023-04-09T04:27:37.931Z,3.75
2023-04-09T04:30:43.748Z,3.55
2023-04-09T04:33:47.489Z,3.92
2023-04-09T04:36:51.932Z,4.50
2023-04-09T04:39:56.361Z,4.97
2023-04-09T04:42:59.840Z,6.45
2023-04-09T04:46:11.494Z,6.55
2023-04-09T04:49:21.737Z,4.43
2023-04-09T04:52:55.575Z,4.45
2023-04-09T04:59:05.243Z,4.55
2023-04-09T05:02:22.581Z,4.03
2023-04-09T05:05:47.069Z,4.82
2023-04-09T05:12:28.112Z,3.67
2023-04-09T05:22:15.904Z,4.07
2023-04-09T05:25:22.573Z,4.05
2023-04-09T05:28:33.449Z,4.80
2023-04-09T05:31:47.128Z,3.30
2023-04-09T05:35:10.879Z,3.25
2023-04-09T05:38:18.713Z,3.30
2023-04-09T05:41:29.177Z,3.75
2023-04-09T05:44:55.523Z,2.92
2023-04-09T05:48:00.421Z,4.15
2023-04-09T05:51:04.211Z,3.00
2023-04-09T05:54:07.558Z,2.75
2023-04-09T05:57:14.450Z,3.55
2023-04-09T06:00:22.460Z,3.47
2023-04-09T06:03:26.654Z,3.10
2023-04-09T06:06:30.165Z,2.90
2023-04-09T06:09:33.576Z,4.18
2023-04-09T06:12:38.209Z,2.78
2023-04-09T06:15:42.640Z,3.33
2023-04-09T06:18:47.540Z,2.90
2023-04-09T06:21:50.894Z,2.20
2023-04-09T06:24:54.303Z,3.45
2023-04-09T06:27:57.970Z,2.50
2023-04-09T06:31:01.270Z,2.15
2023-04-09T06:34:04.707Z,4.38
2023-04-09T06:37:08.074Z,4.57
2023-04-09T06:40:12.134Z,2.38
2023-04-09T06:43:15.673Z,2.60
2023-04-09T06:46:27.305Z,2.85
2023-04-09T06:52:53.158Z,3.03
2023-04-09T06:55:57.322Z,3.20
2023-04-09T06:59:00.671Z,3.22
2023-04-09T07:02:04.302Z,2.40
2023-04-09T07:05:07.937Z,2.33
2023-04-09T07:08:12.426Z,2.55
2023-04-09T07:11:17.762Z,2.40
2023-04-09T07:14:21.114Z,3.45
2023-04-09T07:17:24.900Z,3.05
2023-04-09T07:20:42.735Z,2.45
2023-04-09T07:23:46.526Z,2.88
2023-04-09T07:26:52.509Z,2.60
2023-04-09T07:30:00.495Z,4.85
2023-04-09T07:33:03.869Z,2.80
2023-04-09T07:36:07.447Z,3.15
2023-04-09T07:39:14.269Z,13.32
2023-04-09T07:42:18.624Z,5.25
2023-04-09T07:45:23.554Z,3.60
2023-04-09T07:48:28.932Z,3.28
2023-04-09T07:51:33.007Z,2.40
2023-04-09T08:01:25.204Z,2.60
2023-04-09T08:04:43.944Z,1.58
2023-04-09T08:08:00.447Z,2.20
2023-04-09T08:11:03.873Z,1.65
2023-04-09T08:17:48.687Z,2.40
2023-04-09T08:20:52.709Z,4.72
2023-04-09T08:24:01.924Z,1.65
2023-04-09T08:27:05.306Z,2.13
2023-04-09T08:30:09.255Z,2.47
2023-04-09T08:33:12.663Z,1.80
2023-04-09T08:36:16.764Z,1.80
2023-04-09T08:39:21.390Z,2.00
2023-04-09T08:42:26.922Z,2.47
2023-04-09T08:45:30.331Z,2.78
2023-04-09T08:48:33.957Z,2.08
2023-04-09T08:51:37.336Z,2.15
2023-04-09T08:54:40.766Z,2.78
2023-04-09T08:57:44.534Z,1.88
2023-04-09T09:00:47.933Z,1.63
2023-04-09T09:03:57.709Z,2.25
2023-04-09T09:07:08.245Z,1.95
2023-04-09T09:10:12.049Z,1.98
2023-04-09T09:13:28.137Z,1.20
2023-04-09T09:16:33.780Z,1.90
2023-04-09T09:19:37.974Z,2.20
2023-04-09T09:22:54.722Z,2.25
2023-04-09T09:26:17.695Z,2.63
2023-04-09T09:29:22.079Z,3.58
2023-04-09T09:32:25.945Z,2.05
2023-04-09T09:35:29.468Z,2.40
2023-04-09T09:38:54.332Z,1.52
2023-04-09T09:42:09.100Z,2.17
2023-04-09T09:45:21.729Z,1.48
2023-04-09T09:48:27.144Z,1.45
2023-04-09T09:51:35.573Z,1.75
2023-04-09T09:57:55.438Z,3.38
2023-04-09T10:01:25.479Z,3.55
2023-04-09T10:04:39.238Z,3.90
2023-04-09T10:07:43.623Z,2.80
2023-04-09T10:11:01.554Z,3.60
2023-04-09T10:14:30.834Z,2.10
2023-04-09T10:17:49.777Z,2.88
2023-04-09T10:21:02.696Z,2.90
2023-04-09T10:24:12.474Z,2.70
2023-04-09T10:27:41.265Z,11.05
2023-04-09T10:30:44.763Z,2.47
2023-04-09T10:50:35.650Z,1.52
2023-04-09T10:57:15.105Z,1.33
2023-04-09T11:00:31.480Z,1.70
2023-04-09T11:03:53.020Z,1.02
2023-04-09T11:07:08.835Z,1.38
2023-04-09T11:10:13.685Z,0.85
2023-04-09T11:13:18.986Z,1.15
2023-04-09T11:16:25.959Z,1.83
2023-04-09T11:19:30.958Z,2.72
2023-04-09T11:22:35.030Z,2.42
2023-04-09T11:25:43.070Z,2.08
2023-04-09T11:28:46.616Z,2.22
2023-04-09T11:31:50.022Z,2.03
2023-04-09T11:34:59.688Z,1.70
2023-04-09T11:38:07.648Z,1.88
2023-04-09T11:41:14.230Z,2.08
2023-04-09T11:44:22.636Z,2.10
2023-04-09T11:47:26.357Z,1.40
2023-04-09T11:50:29.984Z,2.40
2023-04-09T11:53:34.639Z,1.50
2023-04-09T11:56:40.902Z,1.40
2023-04-09T11:59:44.515Z,1.23
2023-04-09T12:03:04.966Z,1.63
2023-04-09T12:06:10.031Z,1.80
2023-04-09T12:09:14.859Z,1.92
2023-04-09T12:12:25.323Z,2.47
2023-04-09T12:15:36.738Z,2.30
2023-04-09T12:18:41.359Z,1.80
2023-04-09T12:21:58.930Z,2.28
2023-04-09T12:25:02.438Z,1.80
2023-04-09T12:28:07.732Z,1.90
2023-04-09T12:31:11.645Z,1.50
2023-04-09T12:34:15.166Z,1.70
2023-04-09T12:37:18.516Z,1.90
2023-04-09T12:40:24.591Z,1.35
2023-04-09T12:43:36.697Z,1.38
2023-04-09T12:46:40.139Z,1.70
2023-04-09T12:49:47.040Z,2.50
2023-04-09T12:52:51.165Z,2.30
2023-04-09T12:55:54.674Z,1.98
2023-04-09T12:58:57.924Z,1.33
2023-04-09T13:02:01.593Z,1.70
2023-04-09T13:05:05.476Z,1.20
2023-04-09T13:08:08.986Z,1.17
2023-04-09T13:11:14.012Z,1.00
2023-04-09T13:14:35.593Z,1.80
2023-04-09T13:18:04.102Z,5.15
2023-04-09T13:21:08.042Z,1.98
2023-04-09T13:24:11.694Z,1.77
2023-04-09T13:27:17.101Z,1.65
2023-04-09T13:30:24.321Z,2.30
2023-04-09T13:33:27.617Z,1.55
2023-04-09T13:36:32.310Z,1.50
2023-04-09T13:39:35.666Z,1.38
2023-04-09T13:42:41.716Z,1.30
2023-04-09T13:45:47.969Z,1.15
2023-04-09T13:48:51.566Z,1.20
2023-04-09T13:51:56.436Z,1.05
2023-04-09T13:55:03.992Z,1.63
2023-04-09T13:58:09.655Z,1.40
2023-04-09T14:01:13.333Z,1.80
2023-04-09T14:04:17.465Z,4.30
2023-04-09T14:07:24.619Z,6.65
2023-04-09T14:10:33.702Z,7.25
2023-04-09T14:13:37.093Z,7.72
2023-04-09T14:16:43.449Z,8.30
2023-04-09T14:19:46.808Z,8.50
2023-04-09T14:22:50.207Z,9.38
2023-04-09T14:25:54.104Z,9.10
2023-04-09T14:28:59.813Z,9.82
2023-04-09T14:32:03.061Z,9.07
2023-04-09T14:35:07.134Z,9.27
2023-04-09T14:38:15.151Z,9.50
2023-04-09T14:41:22.298Z,10.00
2023-04-09T14:44:50.795Z,10.40
2023-04-09T14:47:57.093Z,10.18
2023-04-09T14:51:05.538Z,10.60
2023-04-09T14:54:12.004Z,15.82
2023-04-09T14:57:15.328Z,9.48
2023-04-09T15:00:24.603Z,8.75
2023-04-09T15:03:31.570Z,10.32
2023-04-09T15:06:38.349Z,9.57
2023-04-09T15:09:42.294Z,8.68
2023-04-09T15:12:51.793Z,6.88
2023-04-09T15:15:58.308Z,7.78
2023-04-09T15:19:08.172Z,4.85
2023-04-09T15:22:11.645Z,4.40
2023-04-09T15:25:25.265Z,4.50
2023-04-09T15:28:28.620Z,2.60
2023-04-09T15:31:40.022Z,3.25
2023-04-09T15:35:10.012Z,2.10
2023-04-09T15:38:17.893Z,2.10
2023-04-09T15:41:47.504Z,1.70
2023-04-09T15:44:54.525Z,1.40
2023-04-09T15:48:22.948Z,1.45
2023-04-09T15:51:41.644Z,1.83
2023-04-09T15:54:48.098Z,1.52
2023-04-09T15:58:00.250Z,1.33
2023-04-09T16:01:31.801Z,1.20
2023-04-09T16:05:04.402Z,1.00
2023-04-09T16:08:12.446Z,1.13
2023-04-09T16:11:16.156Z,1.10
2023-04-09T16:14:24.366Z,1.20
2023-04-09T16:18:21.499Z,0.82
2023-04-09T16:22:14.254Z,1.02
2023-04-09T16:25:20.497Z,1.00
2023-04-09T16:28:30.728Z,0.80
2023-04-09T16:31:38.754Z,1.45
2023-04-09T16:34:49.531Z,1.17
2023-04-09T16:37:55.776Z,0.55
2023-04-09T16:41:20.888Z,1.05
2023-04-09T16:44:30.509Z,0.47
2023-04-09T16:47:44.231Z,0.90
2023-04-09T16:50:47.792Z,1.13
2023-04-09T16:53:54.344Z,1.10
2023-04-09T16:57:23.622Z,0.82
2023-04-09T17:00:32.632Z,0.90
2023-04-09T17:03:39.470Z,1.05
2023-04-09T17:06:48.812Z,1.10
2023-04-09T17:10:18.700Z,1.08
2023-04-09T17:13:48.043Z,0.80
2023-04-09T17:17:00.768Z,0.95
2023-04-09T17:20:07.921Z,0.88
2023-04-09T17:23:11.252Z,1.30
2023-04-09T17:26:23.392Z,1.20
2023-04-09T17:29:27.021Z,1.20
2023-04-09T17:32:32.108Z,1.20
2023-04-09T17:35:38.534Z,1.00
2023-04-09T17:38:54.394Z,1.08
2023-04-09T17:41:58.921Z,1.10
2023-04-09T17:45:02.360Z,1.08
2023-04-09T17:48:08.760Z,1.10
2023-04-09T17:51:17.228Z,1.10
2023-04-09T17:54:20.585Z,0.77
2023-04-09T17:57:28.428Z,1.23
2023-04-09T18:00:32.352Z,1.02
2023-04-09T18:03:39.848Z,1.00
2023-04-09T18:06:45.481Z,1.27
2023-04-09T18:09:49.914Z,0.95
2023-04-09T18:12:53.452Z,0.75
2023-04-09T18:15:57.834Z,0.98
2023-04-09T18:19:13.846Z,1.02
2023-04-09T18:22:46.085Z,1.10
2023-04-09T18:25:52.713Z,1.23
2023-04-09T18:29:01.248Z,0.93
2023-04-09T18:32:07.916Z,1.15
2023-04-09T18:35:11.398Z,0.80
2023-04-09T18:38:18.232Z,1.00
2023-04-09T18:41:46.467Z,0.93
2023-04-09T18:45:30.200Z,0.90
2023-04-09T18:48:33.703Z,1.10
2023-04-09T18:51:39.958Z,1.23
2023-04-09T18:54:46.649Z,1.23
2023-04-09T18:57:56.067Z,1.05
2023-04-09T19:01:13.224Z,1.00
2023-04-09T19:04:28.733Z,1.27
2023-04-09T19:07:32.190Z,1.48
2023-04-09T19:10:39.004Z,1.27
2023-04-09T19:14:07.393Z,1.48
2023-04-09T19:17:14.023Z,1.85
2023-04-09T19:20:17.958Z,2.90
2023-04-09T19:23:39.688Z,4.85
2023-04-09T19:27:33.201Z,3.40
2023-04-09T19:30:39.311Z,2.90
2023-04-09T19:33:45.415Z,2.58
2023-04-09T19:36:51.716Z,2.95
2023-04-09T19:40:05.323Z,1.77
2023-04-09T19:43:08.942Z,2.65
2023-04-09T19:46:33.108Z,2.20
2023-04-09T19:49:40.084Z,3.45
2023-04-09T19:52:48.815Z,2.80
2023-04-09T19:55:54.871Z,3.30
2023-04-09T19:59:08.007Z,2.90
2023-04-09T20:03:01.680Z,3.42
2023-04-09T20:06:11.438Z,3.63
2023-04-09T20:09:33.144Z,4.78
2023-04-09T20:13:02.324Z,4.07
2023-04-09T20:16:08.256Z,4.40
2023-04-09T20:19:12.255Z,5.10
2023-04-09T20:22:21.786Z,4.95
2023-04-09T20:25:53.296Z,5.10
2023-04-09T20:28:59.880Z,6.05
2023-04-09T20:32:07.070Z,5.45
2023-04-09T20:35:34.946Z,5.57
2023-04-09T20:39:03.790Z,5.72
2023-04-09T20:42:09.594Z,4.97
2023-04-09T20:45:13.063Z,5.00
2023-04-09T20:48:22.443Z,4.40
2023-04-09T20:51:50.776Z,3.83
2023-04-09T20:54:57.746Z,3.70
2023-04-09T20:58:04.887Z,3.50
2023-04-09T21:01:10.480Z,3.85
2023-04-09T21:04:17.604Z,2.47
2023-04-09T21:07:26.045Z,2.72
2023-04-09T21:10:32.216Z,5.18
2023-04-09T21:13:53.789Z,4.35
2023-04-09T21:17:26.993Z,3.63
2023-04-09T21:20:30.869Z,4.43
2023-04-09T21:23:37.221Z,4.72
2023-04-09T21:26:50.953Z,3.35
2023-04-09T21:29:55.288Z,3.50
2023-04-09T21:33:01.723Z,5.50
2023-04-09T21:36:08.528Z,2.75
2023-04-09T21:39:12.038Z,3.80
2023-04-09T21:42:40.995Z,4.55
2023-04-09T21:45:47.875Z,3.08
2023-04-09T21:48:51.701Z,3.70
2023-04-09T21:51:59.882Z,3.42
2023-04-09T21:55:06.949Z,3.13
2023-04-09T21:58:10.344Z,3.00
2023-04-09T22:01:26.489Z,3.50
2023-04-09T22:05:00.779Z,3.45
2023-04-09T22:08:08.382Z,4.13
2023-04-09T22:14:41.763Z,5.15
2023-04-09T22:17:51.397Z,6.18
2023-04-09T22:20:54.798Z,7.32
2023-04-09T22:31:16.065Z,5.32
2023-04-09T22:34:21.826Z,3.42
2023-04-09T22:37:29.575Z,4.25
2023-04-09T22:40:58.314Z,3.70
2023-04-09T22:44:05.524Z,3.65
2023-04-09T22:47:09.112Z,4.10
2023-04-09T22:50:14.317Z,3.50
2023-04-09T22:53:30.355Z,4.05
2023-04-09T22:56:37.708Z,4.43
2023-04-09T22:59:53.112Z,2.13
2023-04-09T23:03:08.832Z,2.60
2023-04-09T23:06:17.670Z,3.03
2023-04-09T23:09:23.939Z,2.90
2023-04-09T23:12:32.522Z,2.42
2023-04-09T23:16:01.275Z,2.78
2023-04-09T23:19:07.881Z,2.65
2023-04-09T23:22:42.680Z,4.07
2023-04-09T23:26:11.204Z,3.45
2023-04-09T23:29:14.996Z,4.28
2023-04-09T23:32:44.637Z,7.05
2023-04-09T23:35:48.814Z,5.90
2023-04-09T23:38:55.020Z,4.30
2023-04-09T23:41:58.655Z,4.80
2023-04-09T23:45:06.772Z,5.88
2023-04-09T23:48:10.400Z,5.82
2023-04-09T23:51:18.999Z,6.38
2023-04-09T23:54:28.368Z,6.95
2023-04-09T23:57:34.862Z,6.43
